Stations météo

réclame
Mon MeteoGroup
London/Gatwick, Grande-Bretagne (3776): Température de l'air & dewpoint: 15.10.2017 14:00:00 - 21.10.2017 14:00:00 (BST)London/Gatwick, Grande-Bretagne (3776): Vitesse du vent: 15.10.2017 14:00:00 - 21.10.2017 14:00:00 (BST)London/Gatwick, Grande-Bretagne (3776): Direction du vent: 15.10.2017 14:00:00 - 21.10.2017 14:00:00 (BST)London/Gatwick, Grande-Bretagne (3776): visibility: 15.10.2017 14:00:00 - 21.10.2017 14:00:00 (BST)
Date & Time tt [°C] td [°C] ff [km/h] ff [knt] dd vv [km]
21.10.2017 14:00:00 13,0 10,0 35 19 SW 10
21.10.2017 13:00:00 14,0 10,0 31 17 SW 10
21.10.2017 12:00:00 13,0 10,0 31 17 SW 10
21.10.2017 11:00:00 14,0 10,0 29 16 SSW 8
21.10.2017 10:00:00 13,0 11,0 22 12 SSW 9
21.10.2017 09:00:00 12,0 10,0 22 12 SSW 10
21.10.2017 08:00:00 12,0 10,0 16 9 SSW 10
21.10.2017 07:00:00 13,0 11,0 21 11 SW 10
21.10.2017 06:00:00 13,0 12,0 16 9 SW 10
21.10.2017 05:00:00 14,0 13,0 15 8 SSW 5
21.10.2017 04:00:00 14,0 12,0 16 9 SSW 10
21.10.2017 03:00:00 15,0 14,0 22 12 S 7
21.10.2017 02:00:00 14,0 14,0 21 11 S 4,0
21.10.2017 01:00:00 14,0 13,0 16 9 S 6
21.10.2017 00:00:00 15,0 12,0 16 9 S 10
20.10.2017 23:00:00 15,0 10,0 15 8 S 10
20.10.2017 22:00:00 15,0 10,0 16 9 S 10
20.10.2017 21:00:00 13,0 10,0 11 6 S 10
20.10.2017 20:00:00 13,0 9,0 9 5 S 10
20.10.2017 19:00:00 13,0 9,0 11 6 SSW 10
20.10.2017 18:00:00 13,0 8,0 8 4 SSW 10
20.10.2017 17:00:00 13,0 7,0 15 8 WSW 10
20.10.2017 16:00:00 14,0 7,0 21 11 SW 10
20.10.2017 15:00:00 14,0 7,0 21 11 SW 10
20.10.2017 14:00:00 15,0 8,0 18 10 SW 10
20.10.2017 13:00:00 13,0 9,0 22 12 WSW 10
20.10.2017 12:00:00 13,0 9,0 24 13 WSW 10
20.10.2017 11:00:00 12,0 9,0 26 14 WSW 10
20.10.2017 10:00:00 12,0 10,0 26 14 WSW 10
20.10.2017 09:00:00 12,0 10,0 28 15 WSW 10
20.10.2017 08:00:00 12,0 10,0 26 14 WSW 10
20.10.2017 07:00:00 12,0 10,0 24 13 WSW 10
20.10.2017 06:00:00 12,0 11,0 22 12 SW 9
20.10.2017 05:00:00 13,0 12,0 22 12 SSW 4,5
20.10.2017 04:00:00 12,0 11,0 22 12 SSW 7
20.10.2017 03:00:00 12,0 11,0 18 10 SSW 9
20.10.2017 02:00:00 12,0 10,0 15 8 SSW 10
20.10.2017 01:00:00 13,0 11,0 15 8 SSW 10
20.10.2017 00:00:00 14,0 13,0 18 10 SSW 10
19.10.2017 23:00:00 14,0 13,0 22 12 S 7
19.10.2017 22:00:00 14,0 13,0 21 11 S 9
19.10.2017 21:00:00 16,0 13,0 18 10 S 8
19.10.2017 20:00:00 16,0 14,0 16 9 S 10
19.10.2017 19:00:00 15,0 14,0 11 6 SSE 10
19.10.2017 18:00:00 15,0 13,0 11 6 SSE 10
19.10.2017 17:00:00 16,0 14,0 16 9 S 6
19.10.2017 16:00:00 16,0 15,0 21 11 S 9
19.10.2017 15:00:00 16,0 15,0 18 10 S 5
19.10.2017 14:00:00 16,0 15,0 21 11 S 10
19.10.2017 13:00:00 16,0 15,0 13 7 SSE 10
19.10.2017 12:00:00 16,0 15,0 15 8 SE 10
19.10.2017 11:00:00 16,0 15,0 5 3 - 4,5
19.10.2017 10:00:00 15,0 15,0 9 5 E 3,0
19.10.2017 09:00:00 15,0 15,0 5 3 E 3,0
19.10.2017 08:00:00 15,0 15,0 8 4 E 3,0
19.10.2017 07:00:00 15,0 15,0 5 3 - 2,1
19.10.2017 06:00:00 15,0 15,0 8 4 ESE 0,8
19.10.2017 05:00:00 15,0 15,0 4 2 - 1,5
19.10.2017 04:00:00 15,0 15,0 8 4 E 1,8
19.10.2017 03:00:00 15,0 15,0 4 2 - 2,0
19.10.2017 02:00:00 15,0 15,0 4 2 - 2,5
19.10.2017 01:00:00 15,0 15,0 5 3 SSE 2,7
19.10.2017 00:00:00 15,0 15,0 5 3 - 2,0
18.10.2017 23:00:00 15,0 15,0 4 2 SSE 3,0
18.10.2017 22:00:00 15,0 15,0 4 2 SE 2,8
18.10.2017 21:00:00 16,0 15,0 5 3 - 2,0
18.10.2017 20:00:00 16,0 15,0 5 3 - 2,5
18.10.2017 19:00:00 16,0 15,0 11 6 S 3,5
18.10.2017 18:00:00 16,0 15,0 4 2 ESE 2,2
18.10.2017 17:00:00 16,0 15,0 8 4 E 2,5
18.10.2017 16:00:00 16,0 15,0 8 4 E 2,0
18.10.2017 15:00:00 16,0 15,0 8 4 E 2,5
18.10.2017 14:00:00 16,0 15,0 8 4 SE 3,8
18.10.2017 13:00:00 15,0 14,0 9 5 ENE 4,0
18.10.2017 12:00:00 14,0 13,0 11 6 ENE 6
18.10.2017 11:00:00 13,0 12,0 5 3 - 9
18.10.2017 10:00:00 13,0 12,0 4 2 - 9
18.10.2017 09:00:00 12,0 11,0 11 6 ENE 10
18.10.2017 08:00:00 12,0 11,0 9 5 NE 10
18.10.2017 07:00:00 12,0 10,0 9 5 ENE 10
18.10.2017 06:00:00 12,0 10,0 9 5 NNE 10
18.10.2017 05:00:00 12,0 10,0 9 5 ENE 10
18.10.2017 04:00:00 12,0 8,0 11 6 NE 10
18.10.2017 03:00:00 12,0 9,0 8 4 ENE 10
18.10.2017 02:00:00 11,0 9,0 8 4 ENE 10
18.10.2017 01:00:00 11,0 8,0 5 3 - 10
18.10.2017 00:00:00 10,0 8,0 5 3 ENE 10
17.10.2017 23:00:00 10,0 8,0 8 4 ENE 10
17.10.2017 22:00:00 10,0 8,0 9 5 E 10
17.10.2017 21:00:00 11,0 8,0 2 1 - 10
17.10.2017 20:00:00 12,0 8,0 2 1 - 10
17.10.2017 19:00:00 13,0 7,0 4 2 - 10
17.10.2017 18:00:00 13,0 8,0 4 2 - 10
17.10.2017 17:00:00 14,0 8,0 5 3 - 10
17.10.2017 16:00:00 14,0 8,0 11 6 WSW 10
17.10.2017 15:00:00 15,0 9,0 8 4 WSW 10
17.10.2017 14:00:00 14,0 8,0 11 6 SW 10
17.10.2017 13:00:00 13,0 9,0 5 3 SW 10
17.10.2017 12:00:00 13,0 9,0 5 3 - 10
17.10.2017 11:00:00 13,0 9,0 5 3 SW 10
17.10.2017 10:00:00 12,0 9,0 8 4 SW 10
17.10.2017 09:00:00 10,0 8,0 4 2 WSW 10
17.10.2017 08:00:00 11,0 8,0 8 4 SSW 10
17.10.2017 07:00:00 10,0 7,0 5 3 S 10
17.10.2017 06:00:00 10,0 8,0 4 2 - 10
17.10.2017 05:00:00 11,0 8,0 8 4 SSW 10
17.10.2017 04:00:00 12,0 9,0 8 4 SW 10
17.10.2017 03:00:00 12,0 9,0 11 6 SSW 10
17.10.2017 02:00:00 13,0 9,0 11 6 SW 10
17.10.2017 01:00:00 13,0 8,0 15 8 SW 10
17.10.2017 00:00:00 13,0 8,0 15 8 SW 10
16.10.2017 23:00:00 14,0 9,0 21 11 SW 10
16.10.2017 22:00:00 14,0 9,0 21 11 SW 10
16.10.2017 21:00:00 15,0 10,0 18 10 SW 10
16.10.2017 20:00:00 15,0 10,0 21 11 SW 10
16.10.2017 19:00:00 15,0 11,0 24 13 SW 10
16.10.2017 18:00:00 16,0 11,0 24 13 SSW 10
16.10.2017 17:00:00 17,0 12,0 24 13 SW 10
16.10.2017 16:00:00 18,0 15,0 28 15 SW 10
16.10.2017 15:00:00 19,0 16,0 24 13 SSW 10
16.10.2017 14:00:00 20,0 16,0 22 12 SSW 10
16.10.2017 13:00:00 20,0 15,0 21 11 S 10
16.10.2017 12:00:00 21,0 15,0 21 11 S 10
16.10.2017 11:00:00 20,0 16,0 11 6 SSE 10
16.10.2017 10:00:00 19,0 16,0 15 8 SSE 10
16.10.2017 09:00:00 18,0 16,0 11 6 SSE 10
16.10.2017 08:00:00 17,0 16,0 9 5 ESE 10
16.10.2017 07:00:00 17,0 16,0 5 3 - 10
16.10.2017 06:00:00 - - - - - -
16.10.2017 05:00:00 17,0 15,0 4 2 - 10
16.10.2017 04:00:00 17,0 15,0 8 4 S 10
16.10.2017 03:00:00 17,0 15,0 4 2 S 10
16.10.2017 02:00:00 17,0 15,0 8 4 S 10
16.10.2017 01:00:00 15,0 14,0 4 2 SE 6
16.10.2017 00:00:00 15,0 14,0 4 2 - 5
15.10.2017 23:00:00 15,0 14,0 5 3 - 6
15.10.2017 22:00:00 14,0 14,0 4 2 - 8
15.10.2017 21:00:00 13,0 13,0 0 0 N 8
15.10.2017 20:00:00 14,0 13,0 4 2 - 8
15.10.2017 19:00:00 15,0 13,0 5 3 - 8
15.10.2017 18:00:00 16,0 13,0 9 5 S 10
15.10.2017 17:00:00 17,0 14,0 11 6 SSW 10
15.10.2017 16:00:00 18,0 14,0 13 7 SSW 10
15.10.2017 15:00:00 17,0 13,0 21 11 SSW 10
15.10.2017 14:00:00 18,0 14,0 15 8 SW 10

tt = Température de l'air
td = dewpoint
ff = Vitesse du vent
dd = Direction du vent
vv = visibility

stations d'obs. à proximité